map of FBM home
FBM - Airport
Location
City:  Lubumbashi, Katanga, Democratic Republic of Congo (Zaire)
Name:Lubumbashi International Airport
Old (Alt.):Luano, Elisabethville Airport
ICAO:FZQA
IATA:FBM

Details
Type:Airport (Aerodrome, Airfield)
Use:Public/Civil, International (customs port of entry)
Latitude:1135'29"S (-11.591332)
Longitude:2731'51"E (27.530889)
Datum:WGS 1984
Elevation:4295 ft (1309 m)
Variation:2.40W (WMM2015 magnetic declination)
0.06 annual change
Runways:1
Longest:10623 × 164 ft (3238 × 50 m), paved

Time
Time Zone:UTC+2
Local Time:

Weather
METAR:FZQA 160900Z 09004KT 9999 BKN090 21/18 Q1021 NOSIG

Related Locations
Nearby:
Farthest:ITO: 11847 mi / 19065 km
Hilo [Hilo Intl], Hawaii, HI, US

Find:

   beyond  
but within

Other Information
Maps:
NOTAMs:
Links:
Sources:

  
  • flag of Democratic Republic of Congo (Zaire)
  

Sectional Chart

Flight Planning
at skyvector.com

Satellite Image

Google Maps Satellite view

 

Copyright © 2004-2018 Karl L. Swartz. All rights reserved.
The Great Circle Mapper name and logo are trademarks of the Great Circle Mapper.
All other trademarks mentioned herein belong to their respective owners.
Please see credits for attibutions and further copyright information.

  Follow gcmap on Facebook Follow gcmap on Twitter Follow gcmap on Google+ GCmap on LinkedIn

hCard Microformat

Geo Microformat